Peterson, Alabama
Current Conditions -  °F | °C
As of 1:53 AM on Tuesday 21 Oct 2014 (Local Time) from KTCL Reporting Station
Clear Clear  
Wind Chill: 51°   Ceiling: Unl
Heat Index: 51°   Visibility: 10mi
Dew Point: 49°   Wind: 0mph
Humidity: 92%   Direction: NA
Pressure: 30.04"   Gusts: NA
Location:  33.23°N, 87.42°W
Report Text: KTCL 210653Z AUTO 00000KT 10SM CLR 11/09 A3004 RMK AO2 SLP169 T01060094
Loading
Personal Weather Stations






























Interactive Weather Map
Tropical Storm Tracking
New forecast layout! Learn more

10-Day Weather Forecast

Advertisements
Track Severe Weather on mobile